Terminal Aerodrome Forecast
Issued by NWS

Home | Current Version | Previous Version | Text Only | Print | Product List | Glossary On
Versions: 1 2 3 4 5 6 7 8 9 10 11 12 13 14 15 16 17 18 19 20
000
FTUS44 KLZK 221100 CCA
TAFLIT
TAF COR
KLIT 221159Z 2212/2312 16008G15KT P6SM VCSH BKN015 OVC025
      TEMPO 2214/2216 4SM -RADZ BKN008
     FM221600 16008G15KT P6SM VCSH SCT008 OVC015
      TEMPO 2216/2220 BKN008
     FM222200 21006KT P6SM VCSH BKN025 BKN250
     FM230300 28007KT P6SM SCT025 BKN250=

USA.gov is the U.S. government's official web portal to all federal, state and local government web resources and services.